sensor_id;sensor_type;location;lat;lon;timestamp;P1;durP1;ratioP1;P2;durP2;ratioP2
62056;SDS011;48016;50.284;18.860;2024-01-06T00:01:33;43.80;;;22.30;;
62056;SDS011;48016;50.284;18.860;2024-01-06T00:04:00;46.80;;;22.60;;
62056;SDS011;48016;50.284;18.860;2024-01-06T00:06:26;47.00;;;23.60;;
62056;SDS011;48016;50.284;18.860;2024-01-06T00:08:53;49.90;;;24.40;;
62056;SDS011;48016;50.284;18.860;2024-01-06T00:11:21;50.20;;;24.90;;
62056;SDS011;48016;50.284;18.860;2024-01-06T00:13:48;51.00;;;26.00;;
62056;SDS011;48016;50.284;18.860;2024-01-06T00:16:19;51.50;;;25.30;;
62056;SDS011;48016;50.284;18.860;2024-01-06T00:18:46;50.80;;;23.20;;
62056;SDS011;48016;50.284;18.860;2024-01-06T00:21:13;50.00;;;23.90;;
62056;SDS011;48016;50.284;18.860;2024-01-06T00:23:40;49.30;;;24.40;;
62056;SDS011;48016;50.284;18.860;2024-01-06T00:26:07;48.80;;;26.30;;
62056;SDS011;48016;50.284;18.860;2024-01-06T00:28:38;47.20;;;23.20;;
62056;SDS011;48016;50.284;18.860;2024-01-06T00:31:05;53.40;;;27.40;;
62056;SDS011;48016;50.284;18.860;2024-01-06T00:33:32;51.50;;;24.90;;
62056;SDS011;48016;50.284;18.860;2024-01-06T00:35:59;52.00;;;24.80;;
62056;SDS011;48016;50.284;18.860;2024-01-06T00:38:25;54.20;;;26.80;;
62056;SDS011;48016;50.284;18.860;2024-01-06T00:40:52;48.70;;;24.90;;
62056;SDS011;48016;50.284;18.860;2024-01-06T00:43:19;54.80;;;26.10;;
62056;SDS011;48016;50.284;18.860;2024-01-06T00:45:45;51.80;;;26.00;;
62056;SDS011;48016;50.284;18.860;2024-01-06T00:48:12;48.40;;;25.10;;
62056;SDS011;48016;50.284;18.860;2024-01-06T00:50:38;50.30;;;24.20;;
62056;SDS011;48016;50.284;18.860;2024-01-06T00:53:05;50.20;;;24.60;;
62056;SDS011;48016;50.284;18.860;2024-01-06T00:55:32;52.10;;;25.20;;
62056;SDS011;48016;50.284;18.860;2024-01-06T00:57:58;44.60;;;23.00;;
62056;SDS011;48016;50.284;18.860;2024-01-06T01:00:25;43.60;;;23.90;;
62056;SDS011;48016;50.284;18.860;2024-01-06T01:02:53;48.60;;;25.60;;
62056;SDS011;48016;50.284;18.860;2024-01-06T01:05:20;48.30;;;25.80;;
62056;SDS011;48016;50.284;18.860;2024-01-06T01:07:46;57.20;;;26.80;;
62056;SDS011;48016;50.284;18.860;2024-01-06T01:10:13;54.70;;;26.30;;
62056;SDS011;48016;50.284;18.860;2024-01-06T01:12:40;54.10;;;26.00;;
62056;SDS011;48016;50.284;18.860;2024-01-06T01:15:06;54.20;;;25.00;;
62056;SDS011;48016;50.284;18.860;2024-01-06T01:17:33;48.70;;;25.70;;
62056;SDS011;48016;50.284;18.860;2024-01-06T01:20:00;53.90;;;26.70;;
62056;SDS011;48016;50.284;18.860;2024-01-06T01:22:26;53.70;;;26.00;;
62056;SDS011;48016;50.284;18.860;2024-01-06T01:24:53;54.10;;;25.90;;
62056;SDS011;48016;50.284;18.860;2024-01-06T01:27:20;53.40;;;26.20;;
62056;SDS011;48016;50.284;18.860;2024-01-06T01:29:46;55.00;;;26.60;;
62056;SDS011;48016;50.284;18.860;2024-01-06T01:32:14;50.60;;;25.40;;
62056;SDS011;48016;50.284;18.860;2024-01-06T01:34:41;50.20;;;26.90;;
62056;SDS011;48016;50.284;18.860;2024-01-06T01:37:07;52.70;;;26.30;;
62056;SDS011;48016;50.284;18.860;2024-01-06T01:39:34;54.70;;;26.20;;
62056;SDS011;48016;50.284;18.860;2024-01-06T01:42:01;46.50;;;24.00;;
62056;SDS011;48016;50.284;18.860;2024-01-06T01:44:27;50.80;;;24.90;;
62056;SDS011;48016;50.284;18.860;2024-01-06T01:46:54;56.00;;;26.00;;
62056;SDS011;48016;50.284;18.860;2024-01-06T01:49:20;49.40;;;25.00;;
62056;SDS011;48016;50.284;18.860;2024-01-06T01:51:47;49.20;;;25.70;;
62056;SDS011;48016;50.284;18.860;2024-01-06T01:54:15;51.90;;;22.90;;
62056;SDS011;48016;50.284;18.860;2024-01-06T01:56:42;46.10;;;23.10;;
62056;SDS011;48016;50.284;18.860;2024-01-06T01:59:12;44.80;;;22.40;;
62056;SDS011;48016;50.284;18.860;2024-01-06T02:01:40;41.60;;;21.90;;
62056;SDS011;48016;50.284;18.860;2024-01-06T02:04:07;44.10;;;23.50;;
62056;SDS011;48016;50.284;18.860;2024-01-06T02:09:01;45.40;;;23.50;;
62056;SDS011;48016;50.284;18.860;2024-01-06T02:11:28;46.70;;;23.80;;
62056;SDS011;48016;50.284;18.860;2024-01-06T02:13:54;50.40;;;26.70;;
62056;SDS011;48016;50.284;18.860;2024-01-06T02:16:21;48.70;;;26.30;;
62056;SDS011;48016;50.284;18.860;2024-01-06T02:18:47;48.80;;;25.30;;
62056;SDS011;48016;50.284;18.860;2024-01-06T02:21:15;48.50;;;24.90;;
62056;SDS011;48016;50.284;18.860;2024-01-06T02:23:43;52.90;;;25.50;;
62056;SDS011;48016;50.284;18.860;2024-01-06T02:26:10;54.20;;;28.80;;
62056;SDS011;48016;50.284;18.860;2024-01-06T02:28:37;50.10;;;26.40;;
62056;SDS011;48016;50.284;18.860;2024-01-06T02:31:04;60.00;;;29.50;;
62056;SDS011;48016;50.284;18.860;2024-01-06T02:33:30;57.50;;;27.80;;
62056;SDS011;48016;50.284;18.860;2024-01-06T02:35:57;53.50;;;27.20;;
62056;SDS011;48016;50.284;18.860;2024-01-06T02:38:24;53.90;;;27.80;;
62056;SDS011;48016;50.284;18.860;2024-01-06T02:40:50;51.70;;;28.10;;
62056;SDS011;48016;50.284;18.860;2024-01-06T02:43:17;51.70;;;24.70;;
62056;SDS011;48016;50.284;18.860;2024-01-06T02:45:43;54.80;;;27.60;;
62056;SDS011;48016;50.284;18.860;2024-01-06T02:48:10;56.40;;;28.10;;
62056;SDS011;48016;50.284;18.860;2024-01-06T02:50:37;56.30;;;27.30;;
62056;SDS011;48016;50.284;18.860;2024-01-06T02:53:03;57.10;;;27.60;;
62056;SDS011;48016;50.284;18.860;2024-01-06T02:55:30;55.80;;;27.90;;
62056;SDS011;48016;50.284;18.860;2024-01-06T02:57:56;52.00;;;26.40;;
62056;SDS011;48016;50.284;18.860;2024-01-06T03:00:23;47.90;;;24.90;;
62056;SDS011;48016;50.284;18.860;2024-01-06T03:02:49;52.50;;;26.10;;
62056;SDS011;48016;50.284;18.860;2024-01-06T03:05:16;49.10;;;24.60;;
62056;SDS011;48016;50.284;18.860;2024-01-06T03:07:43;46.40;;;25.20;;
62056;SDS011;48016;50.284;18.860;2024-01-06T03:10:10;47.60;;;25.90;;
62056;SDS011;48016;50.284;18.860;2024-01-06T03:12:37;48.70;;;25.20;;
62056;SDS011;48016;50.284;18.860;2024-01-06T03:15:03;48.60;;;26.60;;
62056;SDS011;48016;50.284;18.860;2024-01-06T03:17:30;49.30;;;26.40;;
62056;SDS011;48016;50.284;18.860;2024-01-06T03:19:57;45.80;;;25.70;;
62056;SDS011;48016;50.284;18.860;2024-01-06T03:22:23;50.70;;;28.70;;
62056;SDS011;48016;50.284;18.860;2024-01-06T03:24:50;52.40;;;26.60;;
62056;SDS011;48016;50.284;18.860;2024-01-06T03:27:16;48.60;;;26.60;;
62056;SDS011;48016;50.284;18.860;2024-01-06T03:29:43;50.40;;;26.20;;
62056;SDS011;48016;50.284;18.860;2024-01-06T03:32:10;45.40;;;25.80;;
62056;SDS011;48016;50.284;18.860;2024-01-06T03:34:40;46.60;;;25.40;;
62056;SDS011;48016;50.284;18.860;2024-01-06T03:37:07;50.10;;;26.00;;
62056;SDS011;48016;50.284;18.860;2024-01-06T03:39:33;48.90;;;26.40;;
62056;SDS011;48016;50.284;18.860;2024-01-06T03:42:00;46.70;;;25.70;;
62056;SDS011;48016;50.284;18.860;2024-01-06T03:44:27;52.70;;;27.40;;
62056;SDS011;48016;50.284;18.860;2024-01-06T03:46:59;54.00;;;27.20;;
62056;SDS011;48016;50.284;18.860;2024-01-06T03:49:26;48.20;;;26.30;;
62056;SDS011;48016;50.284;18.860;2024-01-06T03:51:53;44.80;;;24.60;;
62056;SDS011;48016;50.284;18.860;2024-01-06T03:54:19;48.70;;;27.20;;
62056;SDS011;48016;50.284;18.860;2024-01-06T03:56:46;47.30;;;26.80;;
62056;SDS011;48016;50.284;18.860;2024-01-06T03:59:12;46.80;;;25.60;;
62056;SDS011;48016;50.284;18.860;2024-01-06T04:01:39;54.00;;;26.80;;
62056;SDS011;48016;50.284;18.860;2024-01-06T04:04:06;42.10;;;23.70;;
62056;SDS011;48016;50.284;18.860;2024-01-06T04:06:33;52.90;;;26.40;;
62056;SDS011;48016;50.284;18.860;2024-01-06T04:09:00;51.30;;;26.40;;
62056;SDS011;48016;50.284;18.860;2024-01-06T04:11:27;47.10;;;26.10;;
62056;SDS011;48016;50.284;18.860;2024-01-06T04:13:53;49.00;;;26.00;;
62056;SDS011;48016;50.284;18.860;2024-01-06T04:16:20;50.50;;;27.20;;
62056;SDS011;48016;50.284;18.860;2024-01-06T04:18:47;47.90;;;27.10;;
62056;SDS011;48016;50.284;18.860;2024-01-06T04:21:13;51.00;;;27.50;;
62056;SDS011;48016;50.284;18.860;2024-01-06T04:23:40;52.90;;;27.40;;
62056;SDS011;48016;50.284;18.860;2024-01-06T04:26:06;44.40;;;24.60;;
62056;SDS011;48016;50.284;18.860;2024-01-06T04:28:33;45.60;;;27.00;;
62056;SDS011;48016;50.284;18.860;2024-01-06T04:31:00;55.40;;;28.80;;
62056;SDS011;48016;50.284;18.860;2024-01-06T04:33:26;47.90;;;26.00;;
62056;SDS011;48016;50.284;18.860;2024-01-06T04:35:53;51.10;;;29.20;;
62056;SDS011;48016;50.284;18.860;2024-01-06T04:38:19;49.60;;;27.50;;
62056;SDS011;48016;50.284;18.860;2024-01-06T04:40:46;47.30;;;26.20;;
62056;SDS011;48016;50.284;18.860;2024-01-06T04:43:13;50.20;;;28.20;;
62056;SDS011;48016;50.284;18.860;2024-01-06T04:45:39;44.70;;;25.70;;
62056;SDS011;48016;50.284;18.860;2024-01-06T04:48:06;46.90;;;24.90;;
62056;SDS011;48016;50.284;18.860;2024-01-06T04:50:33;49.20;;;25.50;;
62056;SDS011;48016;50.284;18.860;2024-01-06T04:52:59;52.20;;;29.40;;
62056;SDS011;48016;50.284;18.860;2024-01-06T04:55:26;47.40;;;26.60;;
62056;SDS011;48016;50.284;18.860;2024-01-06T04:57:52;49.50;;;27.50;;
62056;SDS011;48016;50.284;18.860;2024-01-06T05:00:19;48.10;;;26.80;;
62056;SDS011;48016;50.284;18.860;2024-01-06T05:02:45;50.70;;;27.10;;
62056;SDS011;48016;50.284;18.860;2024-01-06T05:05:12;54.00;;;27.30;;
62056;SDS011;48016;50.284;18.860;2024-01-06T05:07:39;46.50;;;26.10;;
62056;SDS011;48016;50.284;18.860;2024-01-06T05:10:06;46.90;;;27.10;;
62056;SDS011;48016;50.284;18.860;2024-01-06T05:12:33;47.90;;;28.40;;
62056;SDS011;48016;50.284;18.860;2024-01-06T05:14:59;48.30;;;26.50;;
62056;SDS011;48016;50.284;18.860;2024-01-06T05:17:26;51.70;;;27.40;;
62056;SDS011;48016;50.284;18.860;2024-01-06T05:19:52;47.10;;;25.80;;
62056;SDS011;48016;50.284;18.860;2024-01-06T05:22:20;49.70;;;27.00;;
62056;SDS011;48016;50.284;18.860;2024-01-06T05:24:46;49.40;;;26.90;;
62056;SDS011;48016;50.284;18.860;2024-01-06T05:27:13;46.00;;;26.10;;
62056;SDS011;48016;50.284;18.860;2024-01-06T05:29:39;44.00;;;24.90;;
62056;SDS011;48016;50.284;18.860;2024-01-06T05:32:06;45.40;;;26.50;;
62056;SDS011;48016;50.284;18.860;2024-01-06T05:34:33;47.80;;;25.90;;
62056;SDS011;48016;50.284;18.860;2024-01-06T05:37:00;51.30;;;27.50;;
62056;SDS011;48016;50.284;18.860;2024-01-06T05:39:26;47.80;;;26.60;;
62056;SDS011;48016;50.284;18.860;2024-01-06T05:41:53;48.70;;;26.30;;
62056;SDS011;48016;50.284;18.860;2024-01-06T05:44:19;46.10;;;24.80;;
62056;SDS011;48016;50.284;18.860;2024-01-06T05:46:46;47.80;;;26.50;;
62056;SDS011;48016;50.284;18.860;2024-01-06T05:49:13;48.10;;;27.00;;
62056;SDS011;48016;50.284;18.860;2024-01-06T05:51:43;47.90;;;28.60;;
62056;SDS011;48016;50.284;18.860;2024-01-06T05:54:11;48.00;;;27.90;;
62056;SDS011;48016;50.284;18.860;2024-01-06T05:56:38;53.80;;;27.60;;
62056;SDS011;48016;50.284;18.860;2024-01-06T05:59:05;54.60;;;27.10;;
62056;SDS011;48016;50.284;18.860;2024-01-06T06:01:31;51.00;;;26.90;;
62056;SDS011;48016;50.284;18.860;2024-01-06T06:03:58;55.90;;;27.30;;
62056;SDS011;48016;50.284;18.860;2024-01-06T06:06:25;52.60;;;27.40;;
62056;SDS011;48016;50.284;18.860;2024-01-06T06:08:51;68.50;;;34.40;;
62056;SDS011;48016;50.284;18.860;2024-01-06T06:11:18;60.00;;;29.90;;
62056;SDS011;48016;50.284;18.860;2024-01-06T06:13:45;60.00;;;30.80;;
62056;SDS011;48016;50.284;18.860;2024-01-06T06:16:11;61.40;;;31.00;;
62056;SDS011;48016;50.284;18.860;2024-01-06T06:18:38;55.90;;;29.10;;
62056;SDS011;48016;50.284;18.860;2024-01-06T06:21:08;57.90;;;30.70;;
62056;SDS011;48016;50.284;18.860;2024-01-06T06:23:35;53.30;;;30.20;;
62056;SDS011;48016;50.284;18.860;2024-01-06T06:26:05;53.80;;;30.70;;
62056;SDS011;48016;50.284;18.860;2024-01-06T06:28:35;52.30;;;28.90;;
62056;SDS011;48016;50.284;18.860;2024-01-06T06:31:02;56.80;;;31.80;;
62056;SDS011;48016;50.284;18.860;2024-01-06T06:33:29;61.00;;;33.50;;
62056;SDS011;48016;50.284;18.860;2024-01-06T06:35:56;63.50;;;32.80;;
62056;SDS011;48016;50.284;18.860;2024-01-06T06:38:22;54.70;;;30.50;;
62056;SDS011;48016;50.284;18.860;2024-01-06T06:40:49;58.60;;;32.30;;
62056;SDS011;48016;50.284;18.860;2024-01-06T06:43:15;53.20;;;30.00;;
62056;SDS011;48016;50.284;18.860;2024-01-06T06:45:42;58.20;;;32.70;;
62056;SDS011;48016;50.284;18.860;2024-01-06T06:48:08;58.80;;;32.80;;
62056;SDS011;48016;50.284;18.860;2024-01-06T06:50:35;61.10;;;34.70;;
62056;SDS011;48016;50.284;18.860;2024-01-06T06:53:02;54.40;;;32.40;;
62056;SDS011;48016;50.284;18.860;2024-01-06T06:55:29;57.70;;;32.90;;
62056;SDS011;48016;50.284;18.860;2024-01-06T06:57:56;65.60;;;34.40;;
62056;SDS011;48016;50.284;18.860;2024-01-06T07:00:22;60.00;;;33.10;;
62056;SDS011;48016;50.284;18.860;2024-01-06T07:02:49;59.70;;;33.30;;
62056;SDS011;48016;50.284;18.860;2024-01-06T07:05:15;60.50;;;31.60;;
62056;SDS011;48016;50.284;18.860;2024-01-06T07:07:43;62.80;;;33.00;;
62056;SDS011;48016;50.284;18.860;2024-01-06T07:10:12;61.40;;;33.10;;
62056;SDS011;48016;50.284;18.860;2024-01-06T07:12:39;59.40;;;34.50;;
62056;SDS011;48016;50.284;18.860;2024-01-06T07:15:06;61.50;;;34.90;;
62056;SDS011;48016;50.284;18.860;2024-01-06T07:17:35;65.10;;;34.30;;
62056;SDS011;48016;50.284;18.860;2024-01-06T07:20:02;78.80;;;37.60;;
62056;SDS011;48016;50.284;18.860;2024-01-06T07:22:28;64.30;;;32.70;;
62056;SDS011;48016;50.284;18.860;2024-01-06T07:24:55;57.30;;;31.70;;
62056;SDS011;48016;50.284;18.860;2024-01-06T07:27:22;54.20;;;28.50;;
62056;SDS011;48016;50.284;18.860;2024-01-06T07:29:48;58.50;;;31.30;;
62056;SDS011;48016;50.284;18.860;2024-01-06T07:32:15;58.00;;;31.70;;
62056;SDS011;48016;50.284;18.860;2024-01-06T07:34:42;60.60;;;32.00;;
62056;SDS011;48016;50.284;18.860;2024-01-06T07:39:36;62.80;;;35.50;;
62056;SDS011;48016;50.284;18.860;2024-01-06T07:42:03;63.10;;;33.80;;
62056;SDS011;48016;50.284;18.860;2024-01-06T07:44:30;63.30;;;35.20;;
62056;SDS011;48016;50.284;18.860;2024-01-06T07:46:56;68.10;;;36.30;;
62056;SDS011;48016;50.284;18.860;2024-01-06T07:49:23;64.70;;;34.90;;
62056;SDS011;48016;50.284;18.860;2024-01-06T07:51:50;65.20;;;33.70;;
62056;SDS011;48016;50.284;18.860;2024-01-06T07:54:16;68.50;;;35.90;;
62056;SDS011;48016;50.284;18.860;2024-01-06T07:56:43;70.40;;;34.80;;
62056;SDS011;48016;50.284;18.860;2024-01-06T07:59:10;62.30;;;33.30;;
62056;SDS011;48016;50.284;18.860;2024-01-06T08:01:37;63.40;;;35.20;;
62056;SDS011;48016;50.284;18.860;2024-01-06T08:04:03;64.60;;;35.90;;
62056;SDS011;48016;50.284;18.860;2024-01-06T08:06:30;68.70;;;36.80;;
62056;SDS011;48016;50.284;18.860;2024-01-06T08:08:57;68.60;;;36.00;;
62056;SDS011;48016;50.284;18.860;2024-01-06T08:11:23;70.20;;;36.90;;
62056;SDS011;48016;50.284;18.860;2024-01-06T08:13:50;67.80;;;36.50;;
62056;SDS011;48016;50.284;18.860;2024-01-06T08:16:18;68.40;;;39.20;;
62056;SDS011;48016;50.284;18.860;2024-01-06T08:18:45;79.20;;;39.80;;
62056;SDS011;48016;50.284;18.860;2024-01-06T08:21:11;84.20;;;40.30;;
62056;SDS011;48016;50.284;18.860;2024-01-06T08:23:38;78.00;;;39.30;;
62056;SDS011;48016;50.284;18.860;2024-01-06T08:26:04;81.40;;;40.00;;
62056;SDS011;48016;50.284;18.860;2024-01-06T08:28:32;72.10;;;40.10;;
62056;SDS011;48016;50.284;18.860;2024-01-06T08:30:58;67.00;;;36.90;;
62056;SDS011;48016;50.284;18.860;2024-01-06T08:33:25;66.30;;;36.60;;
62056;SDS011;48016;50.284;18.860;2024-01-06T08:35:51;65.10;;;35.60;;
62056;SDS011;48016;50.284;18.860;2024-01-06T08:38:18;67.20;;;36.60;;
62056;SDS011;48016;50.284;18.860;2024-01-06T08:40:45;62.20;;;35.20;;
62056;SDS011;48016;50.284;18.860;2024-01-06T08:43:14;65.30;;;35.80;;
62056;SDS011;48016;50.284;18.860;2024-01-06T08:45:40;57.60;;;34.30;;
62056;SDS011;48016;50.284;18.860;2024-01-06T08:48:07;65.60;;;37.50;;
62056;SDS011;48016;50.284;18.860;2024-01-06T08:50:34;65.30;;;35.70;;
62056;SDS011;48016;50.284;18.860;2024-01-06T08:53:00;66.10;;;36.00;;
62056;SDS011;48016;50.284;18.860;2024-01-06T08:55:27;69.00;;;36.70;;
62056;SDS011;48016;50.284;18.860;2024-01-06T08:57:54;67.50;;;36.70;;
62056;SDS011;48016;50.284;18.860;2024-01-06T09:00:20;69.40;;;36.20;;
62056;SDS011;48016;50.284;18.860;2024-01-06T09:02:47;65.30;;;35.00;;
62056;SDS011;48016;50.284;18.860;2024-01-06T09:05:15;59.60;;;33.60;;
62056;SDS011;48016;50.284;18.860;2024-01-06T09:07:41;60.50;;;34.10;;
62056;SDS011;48016;50.284;18.860;2024-01-06T09:10:08;63.90;;;36.00;;
62056;SDS011;48016;50.284;18.860;2024-01-06T09:12:36;63.30;;;36.10;;
62056;SDS011;48016;50.284;18.860;2024-01-06T09:15:02;65.10;;;38.40;;
62056;SDS011;48016;50.284;18.860;2024-01-06T09:17:29;69.70;;;39.80;;
62056;SDS011;48016;50.284;18.860;2024-01-06T09:19:56;78.20;;;40.50;;
62056;SDS011;48016;50.284;18.860;2024-01-06T09:22:22;70.70;;;41.40;;
62056;SDS011;48016;50.284;18.860;2024-01-06T09:24:50;69.50;;;40.40;;
62056;SDS011;48016;50.284;18.860;2024-01-06T09:27:16;70.30;;;41.20;;
62056;SDS011;48016;50.284;18.860;2024-01-06T09:29:43;71.00;;;41.90;;
62056;SDS011;48016;50.284;18.860;2024-01-06T09:32:10;65.40;;;39.90;;
62056;SDS011;48016;50.284;18.860;2024-01-06T09:34:36;71.50;;;40.00;;
62056;SDS011;48016;50.284;18.860;2024-01-06T09:37:03;76.70;;;43.30;;
62056;SDS011;48016;50.284;18.860;2024-01-06T09:39:30;104.20;;;53.20;;
62056;SDS011;48016;50.284;18.860;2024-01-06T09:44:25;102.10;;;53.50;;
62056;SDS011;48016;50.284;18.860;2024-01-06T09:46:51;92.80;;;51.80;;
62056;SDS011;48016;50.284;18.860;2024-01-06T09:49:20;83.20;;;48.00;;
62056;SDS011;48016;50.284;18.860;2024-01-06T09:51:50;81.30;;;45.10;;
62056;SDS011;48016;50.284;18.860;2024-01-06T09:54:22;79.40;;;45.30;;
62056;SDS011;48016;50.284;18.860;2024-01-06T09:56:52;82.30;;;44.90;;
62056;SDS011;48016;50.284;18.860;2024-01-06T09:59:19;85.50;;;47.90;;
62056;SDS011;48016;50.284;18.860;2024-01-06T10:01:46;103.40;;;55.90;;
62056;SDS011;48016;50.284;18.860;2024-01-06T10:04:12;115.10;;;61.30;;
62056;SDS011;48016;50.284;18.860;2024-01-06T10:06:41;110.00;;;61.20;;
62056;SDS011;48016;50.284;18.860;2024-01-06T10:09:08;118.80;;;60.80;;
62056;SDS011;48016;50.284;18.860;2024-01-06T10:11:35;107.60;;;60.40;;
62056;SDS011;48016;50.284;18.860;2024-01-06T10:14:03;111.30;;;61.10;;
62056;SDS011;48016;50.284;18.860;2024-01-06T10:16:29;123.10;;;64.10;;
62056;SDS011;48016;50.284;18.860;2024-01-06T10:18:56;121.50;;;65.50;;
62056;SDS011;48016;50.284;18.860;2024-01-06T10:21:23;116.20;;;64.80;;
62056;SDS011;48016;50.284;18.860;2024-01-06T10:23:51;117.50;;;68.10;;
62056;SDS011;48016;50.284;18.860;2024-01-06T10:26:21;115.20;;;63.60;;
62056;SDS011;48016;50.284;18.860;2024-01-06T10:28:48;119.80;;;68.20;;
62056;SDS011;48016;50.284;18.860;2024-01-06T10:31:16;120.60;;;66.50;;
62056;SDS011;48016;50.284;18.860;2024-01-06T10:33:44;120.30;;;66.30;;
62056;SDS011;48016;50.284;18.860;2024-01-06T10:36:11;114.10;;;66.60;;
62056;SDS011;48016;50.284;18.860;2024-01-06T10:38:39;116.70;;;66.40;;
62056;SDS011;48016;50.284;18.860;2024-01-06T10:41:06;109.90;;;60.20;;
62056;SDS011;48016;50.284;18.860;2024-01-06T10:43:33;103.40;;;60.60;;
62056;SDS011;48016;50.284;18.860;2024-01-06T10:46:02;101.40;;;56.80;;
62056;SDS011;48016;50.284;18.860;2024-01-06T10:48:34;104.90;;;58.70;;
62056;SDS011;48016;50.284;18.860;2024-01-06T10:51:01;100.50;;;56.90;;
62056;SDS011;48016;50.284;18.860;2024-01-06T10:53:28;101.00;;;56.00;;
62056;SDS011;48016;50.284;18.860;2024-01-06T10:55:56;101.90;;;56.90;;
62056;SDS011;48016;50.284;18.860;2024-01-06T11:00:51;88.20;;;52.20;;
62056;SDS011;48016;50.284;18.860;2024-01-06T11:03:18;91.90;;;53.10;;
62056;SDS011;48016;50.284;18.860;2024-01-06T11:05:45;95.60;;;52.10;;
62056;SDS011;48016;50.284;18.860;2024-01-06T11:08:12;82.50;;;45.40;;
62056;SDS011;48016;50.284;18.860;2024-01-06T11:10:39;76.20;;;43.60;;
62056;SDS011;48016;50.284;18.860;2024-01-06T11:13:14;73.90;;;41.80;;
62056;SDS011;48016;50.284;18.860;2024-01-06T11:15:47;73.00;;;40.00;;
62056;SDS011;48016;50.284;18.860;2024-01-06T11:21:16;81.50;;;43.80;;
62056;SDS011;48016;50.284;18.860;2024-01-06T11:26:32;78.40;;;43.30;;
62056;SDS011;48016;50.284;18.860;2024-01-06T11:28:59;76.10;;;40.30;;
62056;SDS011;48016;50.284;18.860;2024-01-06T11:31:30;68.50;;;38.50;;
62056;SDS011;48016;50.284;18.860;2024-01-06T11:33:58;71.40;;;37.90;;
62056;SDS011;48016;50.284;18.860;2024-01-06T11:36:48;66.60;;;37.30;;
62056;SDS011;48016;50.284;18.860;2024-01-06T11:42:01;72.40;;;38.00;;
62056;SDS011;48016;50.284;18.860;2024-01-06T11:44:28;56.20;;;30.80;;
62056;SDS011;48016;50.284;18.860;2024-01-06T11:46:56;63.90;;;35.40;;
62056;SDS011;48016;50.284;18.860;2024-01-06T11:49:23;61.00;;;34.50;;
62056;SDS011;48016;50.284;18.860;2024-01-06T11:51:58;65.80;;;35.30;;
62056;SDS011;48016;50.284;18.860;2024-01-06T11:54:26;70.90;;;38.60;;
62056;SDS011;48016;50.284;18.860;2024-01-06T11:56:53;67.50;;;39.40;;
62056;SDS011;48016;50.284;18.860;2024-01-06T11:59:20;70.40;;;40.50;;
62056;SDS011;48016;50.284;18.860;2024-01-06T12:01:46;71.20;;;39.00;;
62056;SDS011;48016;50.284;18.860;2024-01-06T12:04:14;72.80;;;40.80;;
62056;SDS011;48016;50.284;18.860;2024-01-06T12:06:44;65.20;;;35.40;;
62056;SDS011;48016;50.284;18.860;2024-01-06T12:09:11;66.50;;;35.30;;
62056;SDS011;48016;50.284;18.860;2024-01-06T12:11:41;61.10;;;35.00;;
62056;SDS011;48016;50.284;18.860;2024-01-06T12:14:10;63.10;;;35.10;;
62056;SDS011;48016;50.284;18.860;2024-01-06T12:16:37;56.30;;;31.20;;
62056;SDS011;48016;50.284;18.860;2024-01-06T12:19:03;61.50;;;33.60;;
62056;SDS011;48016;50.284;18.860;2024-01-06T12:21:30;63.20;;;33.90;;
62056;SDS011;48016;50.284;18.860;2024-01-06T12:24:15;62.50;;;33.40;;
62056;SDS011;48016;50.284;18.860;2024-01-06T12:26:44;57.80;;;31.60;;
62056;SDS011;48016;50.284;18.860;2024-01-06T12:29:11;62.70;;;33.30;;
62056;SDS011;48016;50.284;18.860;2024-01-06T12:31:39;62.30;;;33.40;;
62056;SDS011;48016;50.284;18.860;2024-01-06T12:34:06;61.90;;;33.70;;
62056;SDS011;48016;50.284;18.860;2024-01-06T12:36:37;59.20;;;31.30;;
62056;SDS011;48016;50.284;18.860;2024-01-06T12:39:04;62.90;;;33.40;;
62056;SDS011;48016;50.284;18.860;2024-01-06T12:41:31;59.70;;;32.70;;
62056;SDS011;48016;50.284;18.860;2024-01-06T12:43:59;58.00;;;32.50;;
62056;SDS011;48016;50.284;18.860;2024-01-06T12:46:27;56.60;;;31.30;;
62056;SDS011;48016;50.284;18.860;2024-01-06T12:48:53;60.40;;;32.40;;
62056;SDS011;48016;50.284;18.860;2024-01-06T12:51:20;58.40;;;30.40;;
62056;SDS011;48016;50.284;18.860;2024-01-06T12:53:47;57.40;;;31.60;;
62056;SDS011;48016;50.284;18.860;2024-01-06T12:56:13;56.30;;;29.10;;
62056;SDS011;48016;50.284;18.860;2024-01-06T12:58:41;56.30;;;30.10;;
62056;SDS011;48016;50.284;18.860;2024-01-06T13:01:07;52.50;;;27.10;;
62056;SDS011;48016;50.284;18.860;2024-01-06T13:03:34;55.30;;;27.30;;
62056;SDS011;48016;50.284;18.860;2024-01-06T13:06:01;53.90;;;30.00;;
62056;SDS011;48016;50.284;18.860;2024-01-06T13:08:28;56.20;;;29.90;;
62056;SDS011;48016;50.284;18.860;2024-01-06T13:10:55;54.30;;;29.40;;
62056;SDS011;48016;50.284;18.860;2024-01-06T13:13:23;55.20;;;30.20;;
62056;SDS011;48016;50.284;18.860;2024-01-06T13:15:49;54.30;;;29.40;;
62056;SDS011;48016;50.284;18.860;2024-01-06T13:18:16;53.50;;;29.50;;
62056;SDS011;48016;50.284;18.860;2024-01-06T13:20:45;55.50;;;29.50;;
62056;SDS011;48016;50.284;18.860;2024-01-06T13:23:12;49.90;;;27.10;;
62056;SDS011;48016;50.284;18.860;2024-01-06T13:25:38;43.50;;;24.50;;
62056;SDS011;48016;50.284;18.860;2024-01-06T13:28:08;41.10;;;23.20;;
62056;SDS011;48016;50.284;18.860;2024-01-06T13:30:35;47.70;;;26.60;;
62056;SDS011;48016;50.284;18.860;2024-01-06T13:33:02;50.50;;;27.50;;
62056;SDS011;48016;50.284;18.860;2024-01-06T13:35:29;44.30;;;24.20;;
62056;SDS011;48016;50.284;18.860;2024-01-06T13:37:57;47.40;;;26.60;;
62056;SDS011;48016;50.284;18.860;2024-01-06T13:40:24;48.00;;;25.00;;
62056;SDS011;48016;50.284;18.860;2024-01-06T13:42:51;43.30;;;22.50;;
62056;SDS011;48016;50.284;18.860;2024-01-06T13:47:45;43.30;;;24.30;;
62056;SDS011;48016;50.284;18.860;2024-01-06T13:50:12;42.10;;;22.60;;
62056;SDS011;48016;50.284;18.860;2024-01-06T13:52:39;40.20;;;22.80;;
62056;SDS011;48016;50.284;18.860;2024-01-06T13:55:06;43.80;;;24.00;;
62056;SDS011;48016;50.284;18.860;2024-01-06T13:57:34;41.20;;;23.00;;
62056;SDS011;48016;50.284;18.860;2024-01-06T14:00:01;44.40;;;23.70;;
62056;SDS011;48016;50.284;18.860;2024-01-06T14:02:30;43.90;;;25.10;;
62056;SDS011;48016;50.284;18.860;2024-01-06T14:04:57;45.60;;;24.90;;
62056;SDS011;48016;50.284;18.860;2024-01-06T14:07:24;47.00;;;26.10;;
62056;SDS011;48016;50.284;18.860;2024-01-06T14:09:51;53.10;;;27.40;;
62056;SDS011;48016;50.284;18.860;2024-01-06T14:12:19;48.70;;;26.80;;
62056;SDS011;48016;50.284;18.860;2024-01-06T14:14:45;52.10;;;29.30;;
62056;SDS011;48016;50.284;18.860;2024-01-06T14:17:12;51.10;;;27.20;;
62056;SDS011;48016;50.284;18.860;2024-01-06T14:19:38;49.10;;;26.70;;
62056;SDS011;48016;50.284;18.860;2024-01-06T14:22:05;47.20;;;24.80;;
62056;SDS011;48016;50.284;18.860;2024-01-06T14:24:32;50.20;;;27.50;;
62056;SDS011;48016;50.284;18.860;2024-01-06T14:26:58;45.90;;;25.60;;
62056;SDS011;48016;50.284;18.860;2024-01-06T14:29:25;45.30;;;24.30;;